sensor_id;sensor_type;location;lat;lon;timestamp;P1;durP1;ratioP1;P2;durP2;ratioP2
34505;SDS011;20748;42.632;23.198;2023-05-10T00:02:00;4.05;;;2.55;;
34505;SDS011;20748;42.632;23.198;2023-05-10T00:04:33;3.67;;;2.08;;
34505;SDS011;20748;42.632;23.198;2023-05-10T00:07:05;3.83;;;1.88;;
34505;SDS011;20748;42.632;23.198;2023-05-10T00:09:38;4.10;;;2.55;;
34505;SDS011;20748;42.632;23.198;2023-05-10T00:12:10;3.33;;;1.92;;
34505;SDS011;20748;42.632;23.198;2023-05-10T00:14:42;5.15;;;3.08;;
34505;SDS011;20748;42.632;23.198;2023-05-10T00:17:15;3.25;;;1.92;;
34505;SDS011;20748;42.632;23.198;2023-05-10T00:19:47;5.60;;;3.03;;
34505;SDS011;20748;42.632;23.198;2023-05-10T00:22:20;15.70;;;2.63;;
34505;SDS011;20748;42.632;23.198;2023-05-10T00:24:52;3.83;;;1.90;;
34505;SDS011;20748;42.632;23.198;2023-05-10T00:27:25;10.10;;;2.72;;
34505;SDS011;20748;42.632;23.198;2023-05-10T00:29:57;7.32;;;3.00;;
34505;SDS011;20748;42.632;23.198;2023-05-10T00:32:30;6.22;;;2.63;;
34505;SDS011;20748;42.632;23.198;2023-05-10T00:35:02;4.75;;;2.53;;
34505;SDS011;20748;42.632;23.198;2023-05-10T00:37:35;6.40;;;3.10;;
34505;SDS011;20748;42.632;23.198;2023-05-10T00:40:08;26.42;;;8.30;;
34505;SDS011;20748;42.632;23.198;2023-05-10T00:42:40;20.20;;;7.90;;
34505;SDS011;20748;42.632;23.198;2023-05-10T00:45:13;10.13;;;4.13;;
34505;SDS011;20748;42.632;23.198;2023-05-10T00:47:46;19.42;;;7.22;;
34505;SDS011;20748;42.632;23.198;2023-05-10T00:50:18;38.50;;;11.38;;
34505;SDS011;20748;42.632;23.198;2023-05-10T00:52:51;6.25;;;3.28;;
34505;SDS011;20748;42.632;23.198;2023-05-10T00:55:24;23.80;;;7.93;;
34505;SDS011;20748;42.632;23.198;2023-05-10T00:57:57;7.90;;;3.55;;
34505;SDS011;20748;42.632;23.198;2023-05-10T01:00:29;9.93;;;4.78;;
34505;SDS011;20748;42.632;23.198;2023-05-10T01:03:03;8.30;;;3.50;;
34505;SDS011;20748;42.632;23.198;2023-05-10T01:05:35;10.95;;;5.32;;
34505;SDS011;20748;42.632;23.198;2023-05-10T01:08:07;8.68;;;4.43;;
34505;SDS011;20748;42.632;23.198;2023-05-10T01:10:40;6.65;;;3.35;;
34505;SDS011;20748;42.632;23.198;2023-05-10T01:13:13;15.32;;;6.80;;
34505;SDS011;20748;42.632;23.198;2023-05-10T01:15:52;27.42;;;15.32;;
34505;SDS011;20748;42.632;23.198;2023-05-10T01:18:25;6.55;;;3.50;;
34505;SDS011;20748;42.632;23.198;2023-05-10T01:21:02;6.20;;;3.15;;
34505;SDS011;20748;42.632;23.198;2023-05-10T01:23:55;6.93;;;4.07;;
34505;SDS011;20748;42.632;23.198;2023-05-10T01:30:05;7.32;;;2.72;;
34505;SDS011;20748;42.632;23.198;2023-05-10T01:32:56;5.13;;;3.20;;
34505;SDS011;20748;42.632;23.198;2023-05-10T01:35:34;7.63;;;3.80;;
34505;SDS011;20748;42.632;23.198;2023-05-10T01:38:14;5.07;;;3.17;;
34505;SDS011;20748;42.632;23.198;2023-05-10T01:40:52;6.40;;;2.83;;
34505;SDS011;20748;42.632;23.198;2023-05-10T01:43:43;5.03;;;3.20;;
34505;SDS011;20748;42.632;23.198;2023-05-10T01:46:36;7.90;;;3.78;;
34505;SDS011;20748;42.632;23.198;2023-05-10T01:49:11;5.18;;;2.80;;
34505;SDS011;20748;42.632;23.198;2023-05-10T01:51:53;5.70;;;2.90;;
34505;SDS011;20748;42.632;23.198;2023-05-10T01:54:32;7.05;;;3.25;;
34505;SDS011;20748;42.632;23.198;2023-05-10T01:57:06;6.68;;;3.45;;
34505;SDS011;20748;42.632;23.198;2023-05-10T01:59:41;5.40;;;3.13;;
34505;SDS011;20748;42.632;23.198;2023-05-10T02:02:18;5.82;;;2.97;;
34505;SDS011;20748;42.632;23.198;2023-05-10T02:04:53;6.43;;;2.78;;
34505;SDS011;20748;42.632;23.198;2023-05-10T02:07:27;5.63;;;2.50;;
34505;SDS011;20748;42.632;23.198;2023-05-10T02:10:01;4.95;;;2.47;;
34505;SDS011;20748;42.632;23.198;2023-05-10T02:12:35;6.28;;;3.15;;
34505;SDS011;20748;42.632;23.198;2023-05-10T02:15:08;4.30;;;2.58;;
34505;SDS011;20748;42.632;23.198;2023-05-10T02:17:43;3.97;;;2.17;;
34505;SDS011;20748;42.632;23.198;2023-05-10T02:20:19;2.85;;;1.73;;
34505;SDS011;20748;42.632;23.198;2023-05-10T02:22:54;4.35;;;2.20;;
34505;SDS011;20748;42.632;23.198;2023-05-10T02:25:27;5.75;;;2.55;;
34505;SDS011;20748;42.632;23.198;2023-05-10T02:28:02;5.38;;;2.58;;
34505;SDS011;20748;42.632;23.198;2023-05-10T02:30:37;6.57;;;2.75;;
34505;SDS011;20748;42.632;23.198;2023-05-10T02:33:10;4.65;;;2.40;;
34505;SDS011;20748;42.632;23.198;2023-05-10T02:35:44;5.43;;;2.03;;
34505;SDS011;20748;42.632;23.198;2023-05-10T02:38:17;4.93;;;2.67;;
34505;SDS011;20748;42.632;23.198;2023-05-10T02:40:52;4.60;;;2.30;;
34505;SDS011;20748;42.632;23.198;2023-05-10T02:43:27;4.78;;;2.92;;
34505;SDS011;20748;42.632;23.198;2023-05-10T02:46:04;4.38;;;2.25;;
34505;SDS011;20748;42.632;23.198;2023-05-10T02:48:36;4.20;;;2.53;;
34505;SDS011;20748;42.632;23.198;2023-05-10T02:51:10;4.63;;;2.75;;
34505;SDS011;20748;42.632;23.198;2023-05-10T02:53:48;8.55;;;3.40;;
34505;SDS011;20748;42.632;23.198;2023-05-10T02:56:23;6.03;;;3.15;;
34505;SDS011;20748;42.632;23.198;2023-05-10T02:59:03;7.00;;;2.50;;
34505;SDS011;20748;42.632;23.198;2023-05-10T03:01:36;5.05;;;2.95;;
34505;SDS011;20748;42.632;23.198;2023-05-10T03:04:08;4.13;;;2.38;;
34505;SDS011;20748;42.632;23.198;2023-05-10T03:06:41;4.35;;;1.98;;
34505;SDS011;20748;42.632;23.198;2023-05-10T03:09:14;4.55;;;2.42;;
34505;SDS011;20748;42.632;23.198;2023-05-10T03:11:49;4.68;;;2.30;;
34505;SDS011;20748;42.632;23.198;2023-05-10T03:14:32;3.85;;;2.10;;
34505;SDS011;20748;42.632;23.198;2023-05-10T03:17:15;5.70;;;2.97;;
34505;SDS011;20748;42.632;23.198;2023-05-10T03:19:56;5.18;;;2.38;;
34505;SDS011;20748;42.632;23.198;2023-05-10T03:22:31;4.45;;;2.58;;
34505;SDS011;20748;42.632;23.198;2023-05-10T03:25:10;6.83;;;2.90;;
34505;SDS011;20748;42.632;23.198;2023-05-10T03:27:44;6.07;;;2.78;;
34505;SDS011;20748;42.632;23.198;2023-05-10T03:30:18;5.28;;;2.33;;
34505;SDS011;20748;42.632;23.198;2023-05-10T03:32:51;4.15;;;2.20;;
34505;SDS011;20748;42.632;23.198;2023-05-10T03:35:24;6.72;;;2.88;;
34505;SDS011;20748;42.632;23.198;2023-05-10T03:37:57;4.82;;;2.97;;
34505;SDS011;20748;42.632;23.198;2023-05-10T03:40:29;4.68;;;2.35;;
34505;SDS011;20748;42.632;23.198;2023-05-10T03:43:03;5.43;;;2.97;;
34505;SDS011;20748;42.632;23.198;2023-05-10T03:45:36;3.78;;;2.40;;
34505;SDS011;20748;42.632;23.198;2023-05-10T03:48:09;6.78;;;2.65;;
34505;SDS011;20748;42.632;23.198;2023-05-10T03:50:41;3.80;;;2.38;;
34505;SDS011;20748;42.632;23.198;2023-05-10T03:53:14;6.75;;;3.10;;
34505;SDS011;20748;42.632;23.198;2023-05-10T03:55:47;6.45;;;3.78;;
34505;SDS011;20748;42.632;23.198;2023-05-10T03:58:19;7.68;;;3.35;;
34505;SDS011;20748;42.632;23.198;2023-05-10T04:00:52;6.00;;;3.13;;
34505;SDS011;20748;42.632;23.198;2023-05-10T04:03:25;4.43;;;2.70;;
34505;SDS011;20748;42.632;23.198;2023-05-10T04:05:58;5.63;;;2.88;;
34505;SDS011;20748;42.632;23.198;2023-05-10T04:08:32;5.10;;;2.55;;
34505;SDS011;20748;42.632;23.198;2023-05-10T04:11:05;9.77;;;4.00;;
34505;SDS011;20748;42.632;23.198;2023-05-10T04:13:38;6.13;;;2.92;;
34505;SDS011;20748;42.632;23.198;2023-05-10T04:16:10;6.25;;;3.50;;
34505;SDS011;20748;42.632;23.198;2023-05-10T04:18:42;7.25;;;3.55;;
34505;SDS011;20748;42.632;23.198;2023-05-10T04:21:15;5.30;;;3.40;;
34505;SDS011;20748;42.632;23.198;2023-05-10T04:23:48;7.75;;;3.42;;
34505;SDS011;20748;42.632;23.198;2023-05-10T04:26:20;6.95;;;3.20;;
34505;SDS011;20748;42.632;23.198;2023-05-10T04:28:53;5.93;;;3.03;;
34505;SDS011;20748;42.632;23.198;2023-05-10T04:31:25;7.07;;;3.38;;
34505;SDS011;20748;42.632;23.198;2023-05-10T04:33:59;11.75;;;4.20;;
34505;SDS011;20748;42.632;23.198;2023-05-10T04:36:32;6.13;;;3.60;;
34505;SDS011;20748;42.632;23.198;2023-05-10T04:39:07;6.90;;;3.35;;
34505;SDS011;20748;42.632;23.198;2023-05-10T04:41:41;5.05;;;3.47;;
34505;SDS011;20748;42.632;23.198;2023-05-10T04:44:13;6.78;;;3.45;;
34505;SDS011;20748;42.632;23.198;2023-05-10T04:46:45;8.75;;;4.00;;
34505;SDS011;20748;42.632;23.198;2023-05-10T04:49:18;6.65;;;3.08;;
34505;SDS011;20748;42.632;23.198;2023-05-10T04:51:50;7.72;;;3.30;;
34505;SDS011;20748;42.632;23.198;2023-05-10T04:54:23;6.47;;;3.30;;
34505;SDS011;20748;42.632;23.198;2023-05-10T04:56:56;6.45;;;3.50;;
34505;SDS011;20748;42.632;23.198;2023-05-10T04:59:28;11.10;;;4.10;;
34505;SDS011;20748;42.632;23.198;2023-05-10T05:02:00;7.28;;;4.00;;
34505;SDS011;20748;42.632;23.198;2023-05-10T05:04:33;6.65;;;3.05;;
34505;SDS011;20748;42.632;23.198;2023-05-10T05:07:05;7.57;;;3.58;;
34505;SDS011;20748;42.632;23.198;2023-05-10T05:09:38;7.18;;;3.33;;
34505;SDS011;20748;42.632;23.198;2023-05-10T05:12:10;6.38;;;3.40;;
34505;SDS011;20748;42.632;23.198;2023-05-10T05:14:45;9.35;;;3.63;;
34505;SDS011;20748;42.632;23.198;2023-05-10T05:17:17;6.80;;;3.65;;
34505;SDS011;20748;42.632;23.198;2023-05-10T05:19:49;5.88;;;3.67;;
34505;SDS011;20748;42.632;23.198;2023-05-10T05:22:22;9.02;;;3.83;;
34505;SDS011;20748;42.632;23.198;2023-05-10T05:24:59;7.13;;;3.55;;
34505;SDS011;20748;42.632;23.198;2023-05-10T05:27:33;8.40;;;3.97;;
34505;SDS011;20748;42.632;23.198;2023-05-10T05:30:06;9.23;;;3.88;;
34505;SDS011;20748;42.632;23.198;2023-05-10T05:32:39;7.00;;;3.75;;
34505;SDS011;20748;42.632;23.198;2023-05-10T05:35:11;8.88;;;4.50;;
34505;SDS011;20748;42.632;23.198;2023-05-10T05:37:43;6.78;;;3.75;;
34505;SDS011;20748;42.632;23.198;2023-05-10T05:40:16;8.18;;;4.45;;
34505;SDS011;20748;42.632;23.198;2023-05-10T05:42:49;5.72;;;3.15;;
34505;SDS011;20748;42.632;23.198;2023-05-10T05:45:21;6.57;;;3.70;;
34505;SDS011;20748;42.632;23.198;2023-05-10T05:47:56;6.68;;;3.45;;
34505;SDS011;20748;42.632;23.198;2023-05-10T05:50:28;7.22;;;4.40;;
34505;SDS011;20748;42.632;23.198;2023-05-10T05:53:01;8.80;;;4.40;;
34505;SDS011;20748;42.632;23.198;2023-05-10T05:55:34;10.23;;;5.00;;
34505;SDS011;20748;42.632;23.198;2023-05-10T05:58:06;7.93;;;4.15;;
34505;SDS011;20748;42.632;23.198;2023-05-10T06:00:39;6.60;;;2.90;;
34505;SDS011;20748;42.632;23.198;2023-05-10T06:03:11;8.20;;;4.35;;
34505;SDS011;20748;42.632;23.198;2023-05-10T06:05:43;12.50;;;5.15;;
34505;SDS011;20748;42.632;23.198;2023-05-10T06:08:16;10.18;;;3.97;;
34505;SDS011;20748;42.632;23.198;2023-05-10T06:10:49;9.02;;;5.10;;
34505;SDS011;20748;42.632;23.198;2023-05-10T06:13:21;9.75;;;3.97;;
34505;SDS011;20748;42.632;23.198;2023-05-10T06:15:53;9.20;;;4.25;;
34505;SDS011;20748;42.632;23.198;2023-05-10T06:18:26;7.43;;;4.35;;
34505;SDS011;20748;42.632;23.198;2023-05-10T06:20:58;9.27;;;3.72;;
34505;SDS011;20748;42.632;23.198;2023-05-10T06:23:31;11.05;;;4.75;;
34505;SDS011;20748;42.632;23.198;2023-05-10T06:26:04;10.52;;;5.05;;
34505;SDS011;20748;42.632;23.198;2023-05-10T06:28:36;10.05;;;4.78;;
34505;SDS011;20748;42.632;23.198;2023-05-10T06:31:09;9.52;;;3.97;;
34505;SDS011;20748;42.632;23.198;2023-05-10T06:33:43;9.82;;;5.22;;
34505;SDS011;20748;42.632;23.198;2023-05-10T06:36:15;13.00;;;5.97;;
34505;SDS011;20748;42.632;23.198;2023-05-10T06:38:47;13.98;;;6.43;;
34505;SDS011;20748;42.632;23.198;2023-05-10T06:41:20;11.25;;;5.40;;
34505;SDS011;20748;42.632;23.198;2023-05-10T06:43:55;11.43;;;4.53;;
34505;SDS011;20748;42.632;23.198;2023-05-10T06:46:28;10.10;;;4.35;;
34505;SDS011;20748;42.632;23.198;2023-05-10T06:49:00;12.95;;;5.63;;
34505;SDS011;20748;42.632;23.198;2023-05-10T06:51:32;10.68;;;4.85;;
34505;SDS011;20748;42.632;23.198;2023-05-10T06:54:05;11.23;;;5.97;;
34505;SDS011;20748;42.632;23.198;2023-05-10T06:56:38;9.90;;;4.03;;
34505;SDS011;20748;42.632;23.198;2023-05-10T06:59:11;9.40;;;5.10;;
34505;SDS011;20748;42.632;23.198;2023-05-10T07:01:44;13.68;;;5.35;;
34505;SDS011;20748;42.632;23.198;2023-05-10T07:04:17;14.80;;;5.88;;
34505;SDS011;20748;42.632;23.198;2023-05-10T07:12:34;11.40;;;5.90;;
34505;SDS011;20748;42.632;23.198;2023-05-10T07:15:07;12.80;;;5.07;;
34505;SDS011;20748;42.632;23.198;2023-05-10T07:17:41;11.82;;;6.40;;
34505;SDS011;20748;42.632;23.198;2023-05-10T07:20:28;11.80;;;5.55;;
34505;SDS011;20748;42.632;23.198;2023-05-10T07:23:00;11.60;;;5.53;;
34505;SDS011;20748;42.632;23.198;2023-05-10T07:25:32;11.38;;;5.82;;
34505;SDS011;20748;42.632;23.198;2023-05-10T07:28:05;11.57;;;5.97;;
34505;SDS011;20748;42.632;23.198;2023-05-10T07:30:38;11.70;;;5.22;;
34505;SDS011;20748;42.632;23.198;2023-05-10T07:33:11;12.20;;;5.50;;
34505;SDS011;20748;42.632;23.198;2023-05-10T07:35:45;10.63;;;5.20;;
34505;SDS011;20748;42.632;23.198;2023-05-10T07:38:18;11.60;;;5.38;;
34505;SDS011;20748;42.632;23.198;2023-05-10T07:40:50;10.60;;;5.22;;
34505;SDS011;20748;42.632;23.198;2023-05-10T07:43:23;11.02;;;5.60;;
34505;SDS011;20748;42.632;23.198;2023-05-10T07:45:55;10.10;;;5.28;;
34505;SDS011;20748;42.632;23.198;2023-05-10T07:48:28;10.85;;;5.00;;
34505;SDS011;20748;42.632;23.198;2023-05-10T07:51:01;13.77;;;6.15;;
34505;SDS011;20748;42.632;23.198;2023-05-10T07:53:33;11.13;;;5.28;;
34505;SDS011;20748;42.632;23.198;2023-05-10T07:56:19;10.77;;;5.75;;
34505;SDS011;20748;42.632;23.198;2023-05-10T07:58:54;10.77;;;5.13;;
34505;SDS011;20748;42.632;23.198;2023-05-10T08:01:29;9.93;;;4.72;;
34505;SDS011;20748;42.632;23.198;2023-05-10T08:04:05;13.52;;;6.13;;
34505;SDS011;20748;42.632;23.198;2023-05-10T08:06:38;9.27;;;5.05;;
34505;SDS011;20748;42.632;23.198;2023-05-10T08:09:10;10.23;;;5.03;;
34505;SDS011;20748;42.632;23.198;2023-05-10T08:11:43;12.55;;;6.25;;
34505;SDS011;20748;42.632;23.198;2023-05-10T08:14:16;12.77;;;5.45;;
34505;SDS011;20748;42.632;23.198;2023-05-10T08:16:48;12.23;;;6.15;;
34505;SDS011;20748;42.632;23.198;2023-05-10T08:19:21;10.50;;;4.88;;
34505;SDS011;20748;42.632;23.198;2023-05-10T08:21:54;9.02;;;5.20;;
34505;SDS011;20748;42.632;23.198;2023-05-10T08:24:27;10.30;;;4.88;;
34505;SDS011;20748;42.632;23.198;2023-05-10T08:26:59;13.02;;;5.72;;
34505;SDS011;20748;42.632;23.198;2023-05-10T08:29:32;8.85;;;5.53;;
34505;SDS011;20748;42.632;23.198;2023-05-10T08:32:20;12.80;;;5.22;;
34505;SDS011;20748;42.632;23.198;2023-05-10T08:34:53;9.45;;;4.88;;
34505;SDS011;20748;42.632;23.198;2023-05-10T08:37:25;10.50;;;5.60;;
34505;SDS011;20748;42.632;23.198;2023-05-10T08:40:01;9.60;;;5.53;;
34505;SDS011;20748;42.632;23.198;2023-05-10T08:42:34;10.30;;;5.30;;
34505;SDS011;20748;42.632;23.198;2023-05-10T08:45:10;14.85;;;5.53;;
34505;SDS011;20748;42.632;23.198;2023-05-10T08:47:43;9.32;;;5.50;;
34505;SDS011;20748;42.632;23.198;2023-05-10T08:50:15;13.25;;;5.82;;
34505;SDS011;20748;42.632;23.198;2023-05-10T08:52:53;11.68;;;5.80;;
34505;SDS011;20748;42.632;23.198;2023-05-10T08:55:29;13.38;;;7.10;;
34505;SDS011;20748;42.632;23.198;2023-05-10T08:58:02;13.18;;;7.05;;
34505;SDS011;20748;42.632;23.198;2023-05-10T09:00:36;13.73;;;7.05;;
34505;SDS011;20748;42.632;23.198;2023-05-10T09:03:08;10.95;;;5.78;;
34505;SDS011;20748;42.632;23.198;2023-05-10T09:05:41;14.85;;;6.65;;
34505;SDS011;20748;42.632;23.198;2023-05-10T09:08:14;11.88;;;6.13;;
34505;SDS011;20748;42.632;23.198;2023-05-10T09:10:47;14.63;;;7.20;;
34505;SDS011;20748;42.632;23.198;2023-05-10T09:13:20;14.45;;;5.82;;
34505;SDS011;20748;42.632;23.198;2023-05-10T09:15:54;12.70;;;6.13;;
34505;SDS011;20748;42.632;23.198;2023-05-10T09:18:26;12.07;;;6.00;;
34505;SDS011;20748;42.632;23.198;2023-05-10T09:20:59;8.77;;;5.07;;
34505;SDS011;20748;42.632;23.198;2023-05-10T09:23:32;11.15;;;5.40;;
34505;SDS011;20748;42.632;23.198;2023-05-10T09:26:04;11.05;;;6.00;;
34505;SDS011;20748;42.632;23.198;2023-05-10T09:28:49;12.60;;;6.20;;
34505;SDS011;20748;42.632;23.198;2023-05-10T09:31:23;10.77;;;5.90;;
34505;SDS011;20748;42.632;23.198;2023-05-10T09:33:57;9.98;;;5.82;;
34505;SDS011;20748;42.632;23.198;2023-05-10T09:36:29;10.10;;;5.97;;
34505;SDS011;20748;42.632;23.198;2023-05-10T09:39:02;10.50;;;5.20;;
34505;SDS011;20748;42.632;23.198;2023-05-10T09:41:34;11.65;;;6.60;;
34505;SDS011;20748;42.632;23.198;2023-05-10T09:44:07;12.15;;;6.65;;
34505;SDS011;20748;42.632;23.198;2023-05-10T09:46:40;12.27;;;6.45;;
34505;SDS011;20748;42.632;23.198;2023-05-10T09:49:14;11.02;;;5.60;;
34505;SDS011;20748;42.632;23.198;2023-05-10T09:51:46;11.93;;;6.90;;
34505;SDS011;20748;42.632;23.198;2023-05-10T09:54:19;11.75;;;6.35;;
34505;SDS011;20748;42.632;23.198;2023-05-10T09:56:51;10.38;;;5.97;;
34505;SDS011;20748;42.632;23.198;2023-05-10T09:59:24;10.23;;;5.57;;
34505;SDS011;20748;42.632;23.198;2023-05-10T10:01:59;11.90;;;6.05;;
34505;SDS011;20748;42.632;23.198;2023-05-10T10:04:32;12.02;;;6.60;;
34505;SDS011;20748;42.632;23.198;2023-05-10T10:07:10;9.68;;;5.90;;
34505;SDS011;20748;42.632;23.198;2023-05-10T10:09:43;10.15;;;5.95;;
34505;SDS011;20748;42.632;23.198;2023-05-10T10:12:16;10.02;;;5.25;;
34505;SDS011;20748;42.632;23.198;2023-05-10T10:14:48;9.82;;;6.07;;
34505;SDS011;20748;42.632;23.198;2023-05-10T10:17:23;12.95;;;5.78;;
34505;SDS011;20748;42.632;23.198;2023-05-10T10:19:59;8.15;;;5.15;;
34505;SDS011;20748;42.632;23.198;2023-05-10T10:22:33;10.30;;;5.90;;
34505;SDS011;20748;42.632;23.198;2023-05-10T10:25:06;9.60;;;6.22;;
34505;SDS011;20748;42.632;23.198;2023-05-10T10:27:42;9.93;;;4.95;;
34505;SDS011;20748;42.632;23.198;2023-05-10T10:30:23;11.65;;;6.22;;
34505;SDS011;20748;42.632;23.198;2023-05-10T10:36:00;9.60;;;5.50;;
34505;SDS011;20748;42.632;23.198;2023-05-10T10:38:38;10.85;;;6.20;;
34505;SDS011;20748;42.632;23.198;2023-05-10T10:41:31;8.10;;;5.13;;
34505;SDS011;20748;42.632;23.198;2023-05-10T10:46:59;9.63;;;5.22;;
34505;SDS011;20748;42.632;23.198;2023-05-10T10:49:38;9.50;;;5.25;;
34505;SDS011;20748;42.632;23.198;2023-05-10T10:52:15;8.55;;;5.80;;
34505;SDS011;20748;42.632;23.198;2023-05-10T10:54:52;10.25;;;6.03;;
34505;SDS011;20748;42.632;23.198;2023-05-10T10:57:31;10.70;;;6.95;;
34505;SDS011;20748;42.632;23.198;2023-05-10T11:00:23;14.13;;;6.00;;
34505;SDS011;20748;42.632;23.198;2023-05-10T11:02:58;9.77;;;6.30;;
34505;SDS011;20748;42.632;23.198;2023-05-10T11:05:36;8.55;;;5.30;;
34505;SDS011;20748;42.632;23.198;2023-05-10T11:08:11;11.45;;;6.32;;
34505;SDS011;20748;42.632;23.198;2023-05-10T11:10:49;8.80;;;4.95;;
34505;SDS011;20748;42.632;23.198;2023-05-10T11:13:39;9.52;;;5.97;;
34505;SDS011;20748;42.632;23.198;2023-05-10T11:16:13;9.32;;;5.10;;
34505;SDS011;20748;42.632;23.198;2023-05-10T11:18:53;11.63;;;6.03;;
34505;SDS011;20748;42.632;23.198;2023-05-10T11:21:30;11.63;;;5.60;;
34505;SDS011;20748;42.632;23.198;2023-05-10T11:24:09;9.98;;;5.60;;
34505;SDS011;20748;42.632;23.198;2023-05-10T11:26:44;13.27;;;6.35;;
34505;SDS011;20748;42.632;23.198;2023-05-10T11:29:17;7.55;;;4.47;;
34505;SDS011;20748;42.632;23.198;2023-05-10T11:31:50;8.82;;;5.43;;
34505;SDS011;20748;42.632;23.198;2023-05-10T11:34:23;11.95;;;5.90;;
34505;SDS011;20748;42.632;23.198;2023-05-10T11:36:57;9.73;;;5.22;;
34505;SDS011;20748;42.632;23.198;2023-05-10T11:39:30;9.23;;;5.30;;
34505;SDS011;20748;42.632;23.198;2023-05-10T11:42:04;11.38;;;5.82;;
34505;SDS011;20748;42.632;23.198;2023-05-10T11:44:37;8.88;;;5.10;;
34505;SDS011;20748;42.632;23.198;2023-05-10T11:47:09;9.10;;;5.88;;
34505;SDS011;20748;42.632;23.198;2023-05-10T11:49:44;11.23;;;6.60;;
34505;SDS011;20748;42.632;23.198;2023-05-10T11:52:17;10.10;;;5.25;;
34505;SDS011;20748;42.632;23.198;2023-05-10T11:54:51;9.77;;;5.80;;
34505;SDS011;20748;42.632;23.198;2023-05-10T11:57:25;11.40;;;5.65;;
34505;SDS011;20748;42.632;23.198;2023-05-10T11:59:59;10.48;;;6.57;;
34505;SDS011;20748;42.632;23.198;2023-05-10T12:02:32;11.13;;;4.82;;
34505;SDS011;20748;42.632;23.198;2023-05-10T12:05:05;12.82;;;6.03;;
34505;SDS011;20748;42.632;23.198;2023-05-10T12:07:39;7.95;;;5.05;;
34505;SDS011;20748;42.632;23.198;2023-05-10T12:10:12;8.82;;;5.70;;
34505;SDS011;20748;42.632;23.198;2023-05-10T12:12:46;10.35;;;5.25;;
34505;SDS011;20748;42.632;23.198;2023-05-10T12:15:20;12.02;;;5.07;;
34505;SDS011;20748;42.632;23.198;2023-05-10T12:17:53;9.50;;;6.50;;
34505;SDS011;20748;42.632;23.198;2023-05-10T12:20:27;6.85;;;4.53;;
34505;SDS011;20748;42.632;23.198;2023-05-10T12:23:00;9.43;;;5.35;;
34505;SDS011;20748;42.632;23.198;2023-05-10T12:25:35;7.93;;;4.72;;
34505;SDS011;20748;42.632;23.198;2023-05-10T12:28:08;8.43;;;5.45;;
34505;SDS011;20748;42.632;23.198;2023-05-10T12:30:42;10.40;;;5.70;;
34505;SDS011;20748;42.632;23.198;2023-05-10T12:33:15;6.60;;;4.43;;
34505;SDS011;20748;42.632;23.198;2023-05-10T12:35:49;10.77;;;5.35;;
34505;SDS011;20748;42.632;23.198;2023-05-10T12:38:27;9.23;;;5.38;;
34505;SDS011;20748;42.632;23.198;2023-05-10T12:41:01;8.75;;;5.20;;
34505;SDS011;20748;42.632;23.198;2023-05-10T12:43:35;9.98;;;5.25;;
34505;SDS011;20748;42.632;23.198;2023-05-10T12:46:08;8.35;;;5.10;;
34505;SDS011;20748;42.632;23.198;2023-05-10T12:48:42;8.25;;;4.65;;
34505;SDS011;20748;42.632;23.198;2023-05-10T12:51:15;12.52;;;5.78;;
34505;SDS011;20748;42.632;23.198;2023-05-10T12:53:51;10.35;;;5.53;;
34505;SDS011;20748;42.632;23.198;2023-05-10T12:56:23;9.75;;;6.35;;
34505;SDS011;20748;42.632;23.198;2023-05-10T12:58:56;11.98;;;5.75;;
34505;SDS011;20748;42.632;23.198;2023-05-10T13:01:28;10.55;;;5.90;;
34505;SDS011;20748;42.632;23.198;2023-05-10T13:04:00;10.43;;;6.03;;
34505;SDS011;20748;42.632;23.198;2023-05-10T13:06:33;9.43;;;5.90;;
34505;SDS011;20748;42.632;23.198;2023-05-10T13:09:07;9.57;;;5.88;;
34505;SDS011;20748;42.632;23.198;2023-05-10T13:11:39;11.82;;;6.43;;
34505;SDS011;20748;42.632;23.198;2023-05-10T13:14:11;8.32;;;5.55;;
34505;SDS011;20748;42.632;23.198;2023-05-10T13:16:44;8.38;;;5.13;;
34505;SDS011;20748;42.632;23.198;2023-05-10T13:19:16;14.65;;;5.90;;
34505;SDS011;20748;42.632;23.198;2023-05-10T13:21:49;11.40;;;6.20;;
34505;SDS011;20748;42.632;23.198;2023-05-10T13:24:22;9.70;;;5.97;;
34505;SDS011;20748;42.632;23.198;2023-05-10T13:26:54;9.90;;;5.53;;
34505;SDS011;20748;42.632;23.198;2023-05-10T13:29:27;12.13;;;6.03;;
34505;SDS011;20748;42.632;23.198;2023-05-10T13:31:59;10.70;;;5.93;;
34505;SDS011;20748;42.632;23.198;2023-05-10T13:34:32;8.63;;;4.70;;
34505;SDS011;20748;42.632;23.198;2023-05-10T13:37:04;13.75;;;6.13;;
34505;SDS011;20748;42.632;23.198;2023-05-10T13:39:37;11.10;;;5.95;;
34505;SDS011;20748;42.632;23.198;2023-05-10T13:42:09;11.15;;;6.07;;
34505;SDS011;20748;42.632;23.198;2023-05-10T13:44:42;12.23;;;5.18;;
34505;SDS011;20748;42.632;23.198;2023-05-10T13:47:14;10.38;;;5.40;;
34505;SDS011;20748;42.632;23.198;2023-05-10T13:49:47;11.27;;;5.90;;
34505;SDS011;20748;42.632;23.198;2023-05-10T13:52:19;10.82;;;5.80;;
34505;SDS011;20748;42.632;23.198;2023-05-10T13:54:52;10.32;;;5.07;;
34505;SDS011;20748;42.632;23.198;2023-05-10T13:57:26;10.63;;;5.45;;
34505;SDS011;20748;42.632;23.198;2023-05-10T14:00:00;9.45;;;5.88;;
34505;SDS011;20748;42.632;23.198;2023-05-10T14:02:39;10.18;;;5.35;;
34505;SDS011;20748;42.632;23.198;2023-05-10T14:05:11;10.85;;;4.68;;
34505;SDS011;20748;42.632;23.198;2023-05-10T14:07:44;8.80;;;5.20;;
34505;SDS011;20748;42.632;23.198;2023-05-10T14:10:17;9.25;;;4.82;;
34505;SDS011;20748;42.632;23.198;2023-05-10T14:12:49;9.60;;;4.95;;
34505;SDS011;20748;42.632;23.198;2023-05-10T14:15:22;7.43;;;4.40;;
34505;SDS011;20748;42.632;23.198;2023-05-10T14:17:54;8.27;;;4.68;;
34505;SDS011;20748;42.632;23.198;2023-05-10T14:20:26;8.02;;;4.75;;
34505;SDS011;20748;42.632;23.198;2023-05-10T14:22:59;11.55;;;6.63;;
34505;SDS011;20748;42.632;23.198;2023-05-10T14:25:32;11.90;;;6.18;;
34505;SDS011;20748;42.632;23.198;2023-05-10T14:28:05;7.72;;;5.03;;
34505;SDS011;20748;42.632;23.198;2023-05-10T14:30:38;9.00;;;5.30;;
34505;SDS011;20748;42.632;23.198;2023-05-10T14:33:10;12.85;;;5.50;;
34505;SDS011;20748;42.632;23.198;2023-05-10T14:35:42;9.98;;;6.15;;
34505;SDS011;20748;42.632;23.198;2023-05-10T14:38:16;13.43;;;5.32;;
34505;SDS011;20748;42.632;23.198;2023-05-10T14:40:49;11.43;;;6.40;;
34505;SDS011;20748;42.632;23.198;2023-05-10T14:43:21;9.45;;;5.40;;
34505;SDS011;20748;42.632;23.198;2023-05-10T14:45:53;7.10;;;4.47;;
34505;SDS011;20748;42.632;23.198;2023-05-10T14:48:26;11.80;;;5.35;;
34505;SDS011;20748;42.632;23.198;2023-05-10T14:50:58;9.73;;;5.72;;
34505;SDS011;20748;42.632;23.198;2023-05-10T14:53:30;10.32;;;5.85;;
34505;SDS011;20748;42.632;23.198;2023-05-10T14:56:04;14.43;;;5.55;;
34505;SDS011;20748;42.632;23.198;2023-05-10T14:58:37;8.15;;;5.65;;
34505;SDS011;20748;42.632;23.198;2023-05-10T15:01:09;10.13;;;6.88;;
34505;SDS011;20748;42.632;23.198;2023-05-10T15:03:42;9.98;;;6.30;;
34505;SDS011;20748;42.632;23.198;2023-05-10T15:06:15;11.15;;;6.10;;
34505;SDS011;20748;42.632;23.198;2023-05-10T15:08:47;9.88;;;5.78;;
34505;SDS011;20748;42.632;23.198;2023-05-10T15:11:20;7.38;;;5.10;;
34505;SDS011;20748;42.632;23.198;2023-05-10T15:13:52;10.50;;;5.90;;
34505;SDS011;20748;42.632;23.198;2023-05-10T15:16:25;9.10;;;5.28;;
34505;SDS011;20748;42.632;23.198;2023-05-10T15:18:57;11.23;;;4.93;;
34505;SDS011;20748;42.632;23.198;2023-05-10T15:21:30;9.02;;;5.85;;
34505;SDS011;20748;42.632;23.198;2023-05-10T15:24:06;8.60;;;5.13;;